Time;durP1;ratioP1;P1;durP2;ratioP2;P2;SDS_P1;SDS_P2;PMS_P1;PMS_P2;Temp;Humidity;BMP_temperature;BMP_pressure;BME280_temperature;BME280_humidity;BME280_pressure;Samples;Min_cycle;Max_cycle;Signal;HPM_P1;HPM_P2
2022/01/03 00:01:35;;;;;;;;;;;10.90;92.60;;;;;;5027462;28;19921;-60
2022/01/03 00:04:00;;;;;;;;;;;10.80;92.50;;;;;;5002108;28;19933;-60
2022/01/03 00:06:26;;;;;;;;;;;10.90;92.60;;;;;;5021898;28;20349;-61
2022/01/03 00:08:51;;;;;;;;;;;10.90;92.60;;;;;;5003274;28;20009;-60
2022/01/03 00:11:17;;;;;;;;;;;10.90;92.50;;;;;;5007517;28;19927;-61
2022/01/03 00:13:43;;;;;;;;;;;10.90;92.50;;;;;;5018978;28;19944;-61
2022/01/03 00:16:09;;;;;;;;;;;10.90;92.60;;;;;;5003151;28;20304;-60
2022/01/03 00:18:34;;;;;;;;;;;10.90;92.70;;;;;;5019351;28;19909;-60
2022/01/03 00:21:00;;;;;;;;;;;10.90;92.70;;;;;;5023410;28;19988;-60
2022/01/03 00:23:26;;;;;;;;;;;10.90;92.70;;;;;;5007572;28;19956;-60
2022/01/03 00:25:53;;;;;;;;;;;10.90;92.80;;;;;;5024383;28;19932;-60
2022/01/03 00:28:22;;;;;;;;;;;10.90;92.70;;;;;;5019365;28;19914;-60
2022/01/03 00:30:48;;;;;;;;;;;10.90;92.80;;;;;;5010923;28;20448;-60
2022/01/03 00:33:14;;;;;;;;;;;10.90;93.10;;;;;;5003105;28;20296;-60
2022/01/03 00:35:40;;;;;;;;;;;10.90;92.90;;;;;;5007284;28;19955;-60
2022/01/03 00:38:09;;;;;;;;;;;10.90;92.90;;;;;;5019733;28;19956;-61
2022/01/03 00:40:35;;;;;;;;;;;10.90;92.70;;;;;;5012171;28;20399;-60
2022/01/03 00:43:00;;;;;;;;;;;10.90;92.60;;;;;;5022709;28;19925;-60
2022/01/03 00:45:26;;;;;;;;;;;11.00;92.70;;;;;;5023102;28;19913;-60
2022/01/03 00:47:51;;;;;;;;;;;10.90;92.90;;;;;;5027409;28;20004;-60
2022/01/03 00:50:17;;;;;;;;;;;10.90;92.80;;;;;;5004353;28;20353;-60
2022/01/03 00:52:43;;;;;;;;;;;10.90;92.90;;;;;;5002177;28;19955;-61
2022/01/03 00:55:08;;;;;;;;;;;10.90;92.90;;;;;;5012307;28;19909;-60
2022/01/03 00:57:49;;;;;;;;;;;10.90;92.80;;;;;;5002123;28;19917;-61
2022/01/03 01:00:15;;;;;;;;;;;10.90;92.80;;;;;;5010820;28;19913;-60
2022/01/03 01:02:45;;;;;;;;;;;11.00;92.80;;;;;;5022040;28;20345;-60
2022/01/03 01:05:12;;;;;;;;;;;10.90;92.80;;;;;;5011085;28;20422;-61
2022/01/03 01:07:38;;;;;;;;;;;10.90;92.80;;;;;;5010218;28;19909;-60
2022/01/03 01:10:04;;;;;;;;;;;10.90;92.80;;;;;;5026967;28;19909;-61
2022/01/03 01:12:29;;;;;;;;;;;11.00;92.80;;;;;;5010463;28;19916;-60
2022/01/03 01:14:55;;;;;;;;;;;10.90;92.80;;;;;;5026943;28;19909;-60
2022/01/03 01:17:21;;;;;;;;;;;10.90;92.80;;;;;;5025749;28;20455;-60
2022/01/03 01:19:46;;;;;;;;;;;11.00;92.90;;;;;;5029228;28;19917;-60
2022/01/03 01:22:12;;;;;;;;;;;11.00;93.00;;;;;;5012139;28;20304;-60
2022/01/03 01:24:48;;;;;;;;;;;11.00;92.90;;;;;;5005289;28;19914;-60
2022/01/03 01:29:57;;;;;;;;;;;11.00;92.90;;;;;;5021720;28;19932;-60
2022/01/03 01:32:23;;;;;;;;;;;11.00;92.90;;;;;;5010755;28;19909;-60
2022/01/03 01:34:48;;;;;;;;;;;11.00;92.90;;;;;;5010793;28;19913;-61
2022/01/03 01:37:15;;;;;;;;;;;11.00;92.90;;;;;;5026752;28;19949;-61
2022/01/03 01:39:40;;;;;;;;;;;10.90;92.90;;;;;;5003841;28;20362;-60
2022/01/03 01:42:06;;;;;;;;;;;11.00;92.90;;;;;;5026442;28;19983;-60
2022/01/03 01:44:32;;;;;;;;;;;11.00;93.10;;;;;;5026235;28;20262;-61
2022/01/03 01:46:59;;;;;;;;;;;11.00;93.10;;;;;;5009948;28;19910;-60
2022/01/03 01:49:26;;;;;;;;;;;11.00;93.10;;;;;;5010195;28;19913;-60
2022/01/03 01:52:11;;;;;;;;;;;11.00;93.20;;;;;;5010069;28;19913;-60
2022/01/03 01:54:37;;;;;;;;;;;11.00;93.00;;;;;;5003596;28;19921;-60
2022/01/03 01:57:03;;;;;;;;;;;11.00;93.00;;;;;;5028923;28;20004;-60
2022/01/03 01:59:44;;;;;;;;;;;11.00;93.10;;;;;;5031368;28;20004;-60
2022/01/03 02:02:10;;;;;;;;;;;11.00;93.00;;;;;;5011926;28;19929;-61
2022/01/03 02:04:48;;;;;;;;;;;11.00;92.90;;;;;;4986943;28;19913;-60
2022/01/03 02:07:34;;;;;;;;;;;11.00;93.10;;;;;;5031763;28;20355;-60
2022/01/03 02:10:03;;;;;;;;;;;11.00;92.90;;;;;;5018227;28;19917;-60
2022/01/03 02:12:28;;;;;;;;;;;11.00;92.80;;;;;;5011772;28;19951;-61
2022/01/03 02:14:57;;;;;;;;;;;11.00;93.00;;;;;;5029895;28;20312;-60
2022/01/03 02:17:23;;;;;;;;;;;11.00;93.00;;;;;;5030712;28;19959;-60
2022/01/03 02:20:05;;;;;;;;;;;11.00;92.90;;;;;;5012909;28;19913;-60
2022/01/03 02:22:30;;;;;;;;;;;11.00;92.90;;;;;;5012428;28;19913;-60
2022/01/03 02:24:55;;;;;;;;;;;11.00;92.90;;;;;;5013756;28;19917;-60
2022/01/03 02:27:21;;;;;;;;;;;11.00;93.00;;;;;;5013343;28;19913;-60
2022/01/03 02:29:46;;;;;;;;;;;11.00;93.00;;;;;;5030932;28;19957;-60
2022/01/03 02:32:12;;;;;;;;;;;11.00;93.10;;;;;;5028290;28;20396;-60
2022/01/03 02:34:37;;;;;;;;;;;11.00;93.10;;;;;;5013312;28;19919;-60
2022/01/03 02:37:03;;;;;;;;;;;11.00;93.10;;;;;;5011973;28;19913;-60
2022/01/03 02:39:28;;;;;;;;;;;11.00;93.00;;;;;;5030488;28;19913;-60
2022/01/03 02:41:54;;;;;;;;;;;11.00;93.00;;;;;;5029031;28;20356;-61
2022/01/03 02:44:19;;;;;;;;;;;11.00;93.00;;;;;;5013691;28;19958;-60
2022/01/03 02:46:45;;;;;;;;;;;11.00;93.10;;;;;;5028491;28;20380;-60
2022/01/03 02:49:10;;;;;;;;;;;11.00;93.20;;;;;;5028349;28;19909;-60
2022/01/03 02:51:36;;;;;;;;;;;11.00;93.30;;;;;;5012004;28;19966;-60
2022/01/03 02:54:01;;;;;;;;;;;11.00;93.30;;;;;;5013528;28;19948;-60
2022/01/03 02:56:33;;;;;;;;;;;11.00;93.30;;;;;;5004297;28;20376;-60
2022/01/03 02:58:59;;;;;;;;;;;11.00;93.20;;;;;;5008836;28;19913;-60
2022/01/03 03:01:24;;;;;;;;;;;11.00;93.30;;;;;;5008636;28;19999;-60
2022/01/03 03:03:50;;;;;;;;;;;11.00;93.30;;;;;;5003516;28;19948;-60
2022/01/03 03:06:16;;;;;;;;;;;11.00;93.30;;;;;;5012443;28;20020;-60
2022/01/03 03:08:42;;;;;;;;;;;11.00;93.30;;;;;;5013371;28;20585;-60
2022/01/03 03:11:07;;;;;;;;;;;11.00;93.40;;;;;;5017419;28;19916;-60
2022/01/03 03:13:32;;;;;;;;;;;11.00;93.40;;;;;;5003217;28;20012;-60
2022/01/03 03:15:58;;;;;;;;;;;11.00;93.40;;;;;;5010559;28;19909;-60
2022/01/03 03:18:24;;;;;;;;;;;11.00;93.30;;;;;;5012663;28;19909;-60
2022/01/03 03:20:49;;;;;;;;;;;11.00;93.50;;;;;;5010404;28;19994;-61
2022/01/03 03:23:15;;;;;;;;;;;11.00;93.30;;;;;;5010832;28;19913;-60
2022/01/03 03:25:40;;;;;;;;;;;11.00;93.30;;;;;;5029607;28;19910;-60
2022/01/03 03:28:10;;;;;;;;;;;11.00;93.20;;;;;;5029686;28;20328;-60
2022/01/03 03:30:36;;;;;;;;;;;11.00;93.20;;;;;;5012804;28;20007;-61
2022/01/03 03:33:22;;;;;;;;;;;11.10;93.20;;;;;;5027770;28;19990;-60
2022/01/03 03:35:50;;;;;;;;;;;11.10;93.10;;;;;;5030053;28;19913;-60
2022/01/03 03:38:15;;;;;;;;;;;11.10;93.20;;;;;;5013503;28;20028;-60
2022/01/03 03:40:45;;;;;;;;;;;11.10;93.10;;;;;;5007147;28;20446;-61
2022/01/03 03:43:11;;;;;;;;;;;11.10;93.10;;;;;;5025466;28;19983;-60
2022/01/03 03:45:36;;;;;;;;;;;11.10;93.30;;;;;;5026338;28;20336;-60
2022/01/03 03:48:01;;;;;;;;;;;11.10;93.20;;;;;;5025978;28;19960;-60
2022/01/03 03:50:27;;;;;;;;;;;11.10;93.20;;;;;;5027174;28;19932;-60
2022/01/03 03:52:52;;;;;;;;;;;11.10;93.20;;;;;;5009412;28;20293;-60
2022/01/03 03:55:18;;;;;;;;;;;11.10;93.30;;;;;;5014951;28;19912;-60
2022/01/03 03:57:43;;;;;;;;;;;11.10;93.30;;;;;;4996181;28;20404;-60
2022/01/03 04:00:10;;;;;;;;;;;11.10;93.30;;;;;;5029279;28;19963;-60
2022/01/03 04:02:35;;;;;;;;;;;11.10;93.30;;;;;;5009627;28;19921;-60
2022/01/03 04:05:02;;;;;;;;;;;11.10;93.40;;;;;;5001492;28;19924;-60
2022/01/03 04:07:27;;;;;;;;;;;11.10;93.40;;;;;;5026539;28;20019;-60
2022/01/03 04:09:52;;;;;;;;;;;11.10;93.50;;;;;;5022748;28;19944;-60
2022/01/03 04:12:18;;;;;;;;;;;11.10;93.50;;;;;;5023371;28;19909;-60
2022/01/03 04:14:43;;;;;;;;;;;11.10;93.50;;;;;;5011160;28;19975;-60
2022/01/03 04:17:10;;;;;;;;;;;11.10;93.50;;;;;;5028488;28;19909;-60
2022/01/03 04:19:36;;;;;;;;;;;11.10;93.50;;;;;;5007010;28;20292;-61
2022/01/03 04:22:01;;;;;;;;;;;11.10;93.50;;;;;;5005672;28;19913;-61
2022/01/03 04:24:26;;;;;;;;;;;11.10;93.50;;;;;;5011398;28;19913;-60
2022/01/03 04:26:52;;;;;;;;;;;11.10;93.50;;;;;;5011201;28;19920;-60
2022/01/03 04:29:17;;;;;;;;;;;11.10;93.50;;;;;;5031247;28;19909;-61
2022/01/03 04:31:43;;;;;;;;;;;11.10;93.50;;;;;;5010902;28;19916;-60
2022/01/03 04:34:08;;;;;;;;;;;11.10;93.60;;;;;;5028360;28;20369;-61
2022/01/03 04:36:34;;;;;;;;;;;11.10;93.60;;;;;;5011882;28;20323;-61
2022/01/03 04:38:59;;;;;;;;;;;11.10;93.60;;;;;;5028303;28;19932;-60
2022/01/03 04:41:25;;;;;;;;;;;11.10;93.60;;;;;;5027249;28;19909;-60
2022/01/03 04:43:50;;;;;;;;;;;11.10;93.60;;;;;;5028447;28;19913;-60
2022/01/03 04:46:16;;;;;;;;;;;11.10;93.60;;;;;;5028254;28;20439;-60
2022/01/03 04:48:42;;;;;;;;;;;11.10;93.60;;;;;;5011309;28;20052;-60
2022/01/03 04:51:07;;;;;;;;;;;11.10;93.60;;;;;;5010169;28;20012;-60
2022/01/03 04:53:36;;;;;;;;;;;11.10;93.60;;;;;;5011318;28;19913;-60
2022/01/03 04:56:01;;;;;;;;;;;11.10;93.50;;;;;;5021690;28;19909;-60
2022/01/03 04:58:27;;;;;;;;;;;11.10;93.50;;;;;;5011709;28;19913;-60
2022/01/03 05:00:52;;;;;;;;;;;11.10;93.50;;;;;;5010874;28;20361;-60
2022/01/03 05:03:17;;;;;;;;;;;11.10;93.50;;;;;;5010731;28;19986;-60
2022/01/03 05:05:43;;;;;;;;;;;11.10;93.50;;;;;;5026465;28;19924;-60
2022/01/03 05:08:08;;;;;;;;;;;11.10;93.50;;;;;;5009312;28;19913;-60
2022/01/03 05:10:34;;;;;;;;;;;11.10;93.60;;;;;;5021385;28;19914;-61
2022/01/03 05:12:59;;;;;;;;;;;11.10;93.60;;;;;;5010441;28;19943;-60
2022/01/03 05:15:25;;;;;;;;;;;11.10;93.60;;;;;;4989375;28;19910;-60
2022/01/03 05:17:50;;;;;;;;;;;11.10;93.60;;;;;;5026040;28;19955;-60
2022/01/03 05:20:16;;;;;;;;;;;11.10;93.60;;;;;;5011492;28;20304;-60
2022/01/03 05:22:41;;;;;;;;;;;11.10;93.60;;;;;;5027442;28;19971;-60
2022/01/03 05:25:07;;;;;;;;;;;11.10;93.60;;;;;;5011583;28;19963;-60
2022/01/03 05:27:34;;;;;;;;;;;11.10;93.60;;;;;;5026628;28;19909;-60
2022/01/03 05:30:00;;;;;;;;;;;11.10;93.60;;;;;;5012112;28;20457;-61
2022/01/03 05:32:26;;;;;;;;;;;11.10;93.60;;;;;;5013589;28;19909;-60
2022/01/03 05:34:51;;;;;;;;;;;11.10;93.60;;;;;;5028738;28;19909;-60
2022/01/03 05:37:17;;;;;;;;;;;11.10;93.60;;;;;;5014432;28;20020;-60
2022/01/03 05:39:42;;;;;;;;;;;11.10;93.60;;;;;;5010743;28;19993;-60
2022/01/03 05:42:07;;;;;;;;;;;11.10;93.60;;;;;;5012549;28;19913;-59
2022/01/03 05:44:33;;;;;;;;;;;11.10;93.60;;;;;;5014076;28;20024;-61
2022/01/03 05:46:58;;;;;;;;;;;11.10;93.60;;;;;;5012874;28;20430;-60
2022/01/03 05:49:24;;;;;;;;;;;11.10;93.60;;;;;;5013502;28;19909;-60
2022/01/03 05:51:49;;;;;;;;;;;11.10;93.60;;;;;;5014183;28;19917;-60
2022/01/03 05:54:15;;;;;;;;;;;11.00;93.50;;;;;;5013925;28;19935;-60
2022/01/03 05:56:40;;;;;;;;;;;11.10;93.50;;;;;;5030618;28;19913;-60
2022/01/03 05:59:07;;;;;;;;;;;11.10;93.50;;;;;;5002500;28;19941;-60
2022/01/03 06:01:36;;;;;;;;;;;11.00;93.50;;;;;;5007589;28;19928;-60
2022/01/03 06:04:14;;;;;;;;;;;11.10;93.60;;;;;;5019589;28;20388;-60
2022/01/03 06:06:55;;;;;;;;;;;11.10;93.60;;;;;;5027969;28;20012;-60
2022/01/03 06:09:22;;;;;;;;;;;11.10;93.50;;;;;;5008304;28;20367;-60
2022/01/03 06:11:48;;;;;;;;;;;11.00;93.40;;;;;;5021970;28;19959;-60
2022/01/03 06:14:16;;;;;;;;;;;11.00;93.40;;;;;;5020883;28;19948;-60
2022/01/03 06:16:43;;;;;;;;;;;11.00;93.40;;;;;;5007421;28;20038;-60
2022/01/03 06:19:08;;;;;;;;;;;11.00;93.40;;;;;;5005530;28;20364;-60
2022/01/03 06:21:40;;;;;;;;;;;11.00;93.50;;;;;;5022472;28;19929;-60
2022/01/03 06:24:06;;;;;;;;;;;11.20;93.50;;;;;;5019499;28;19921;-60
2022/01/03 06:26:31;;;;;;;;;;;11.10;93.40;;;;;;5027662;28;19952;-60
2022/01/03 06:28:57;;;;;;;;;;;11.00;93.40;;;;;;5028674;28;19968;-60
2022/01/03 06:31:22;;;;;;;;;;;11.00;93.40;;;;;;5024183;28;19960;-60
2022/01/03 06:33:48;;;;;;;;;;;11.00;93.40;;;;;;5008961;28;19909;-60
2022/01/03 06:36:13;;;;;;;;;;;11.00;93.30;;;;;;5005696;28;20549;-60
2022/01/03 06:38:39;;;;;;;;;;;11.00;93.30;;;;;;5005500;28;19917;-60
2022/01/03 06:41:04;;;;;;;;;;;11.00;93.30;;;;;;5022528;28;20024;-60
2022/01/03 06:43:30;;;;;;;;;;;11.00;93.30;;;;;;5026216;28;19913;-60
2022/01/03 06:45:55;;;;;;;;;;;11.00;93.30;;;;;;5008638;28;19963;-61
2022/01/03 06:48:21;;;;;;;;;;;11.00;93.30;;;;;;5020307;28;19932;-60
2022/01/03 06:50:46;;;;;;;;;;;11.00;93.30;;;;;;5015877;28;19917;-60
2022/01/03 06:53:12;;;;;;;;;;;11.00;93.30;;;;;;5012691;28;19916;-60
2022/01/03 06:55:37;;;;;;;;;;;11.00;93.30;;;;;;5013360;28;20536;-60
2022/01/03 06:58:03;;;;;;;;;;;11.00;93.30;;;;;;5008629;28;19913;-60
2022/01/03 07:00:28;;;;;;;;;;;11.00;93.30;;;;;;5027657;28;19948;-60
2022/01/03 07:02:54;;;;;;;;;;;11.00;93.30;;;;;;4997785;28;19916;-60
2022/01/03 07:05:19;;;;;;;;;;;11.00;93.30;;;;;;5009279;28;20444;-61
2022/01/03 07:07:44;;;;;;;;;;;10.90;93.30;;;;;;5000867;28;19936;-60
2022/01/03 07:10:11;;;;;;;;;;;11.00;93.40;;;;;;5001015;28;19913;-60
2022/01/03 07:12:37;;;;;;;;;;;11.00;93.40;;;;;;5012712;28;19936;-60
2022/01/03 07:20:30;;;;;;;;;;;11.00;93.30;;;;;;5018632;28;19967;-60
2022/01/03 07:22:56;;;;;;;;;;;11.00;93.40;;;;;;5001639;28;20678;-60
2022/01/03 07:25:21;;;;;;;;;;;11.00;93.40;;;;;;5003449;28;19921;-60
2022/01/03 07:27:47;;;;;;;;;;;11.00;93.40;;;;;;5013057;28;20391;-60
2022/01/03 07:30:12;;;;;;;;;;;11.00;93.40;;;;;;5027820;28;19976;-60
2022/01/03 07:32:41;;;;;;;;;;;11.00;93.50;;;;;;4985080;28;19925;-60
2022/01/03 07:35:07;;;;;;;;;;;11.00;93.40;;;;;;5013545;28;19914;-60
2022/01/03 07:37:33;;;;;;;;;;;11.00;93.40;;;;;;5000212;28;19909;-60
2022/01/03 07:39:58;;;;;;;;;;;11.00;93.40;;;;;;5009964;28;19917;-60
2022/01/03 07:42:24;;;;;;;;;;;11.00;93.40;;;;;;5008199;28;20016;-61
2022/01/03 07:44:49;;;;;;;;;;;10.90;93.40;;;;;;5007133;28;19940;-60
2022/01/03 07:47:15;;;;;;;;;;;11.00;93.40;;;;;;4999537;28;19917;-60
2022/01/03 07:49:40;;;;;;;;;;;11.00;93.40;;;;;;5000622;28;19940;-60
2022/01/03 07:52:06;;;;;;;;;;;11.00;93.30;;;;;;5019174;28;20025;-60
2022/01/03 07:54:31;;;;;;;;;;;11.00;93.30;;;;;;4997004;28;19917;-60
2022/01/03 07:56:56;;;;;;;;;;;11.00;93.30;;;;;;5009678;28;20399;-60
2022/01/03 07:59:22;;;;;;;;;;;11.00;93.30;;;;;;5006538;28;19917;-60
2022/01/03 08:01:47;;;;;;;;;;;11.00;93.30;;;;;;5015933;28;19917;-60
2022/01/03 08:04:13;;;;;;;;;;;11.00;93.30;;;;;;5008552;28;19921;-60
2022/01/03 08:06:38;;;;;;;;;;;10.90;93.20;;;;;;5005076;28;20003;-60
2022/01/03 08:09:04;;;;;;;;;;;11.00;93.30;;;;;;4995222;28;19909;-60
2022/01/03 08:11:29;;;;;;;;;;;11.00;93.30;;;;;;5001356;28;20491;-60
2022/01/03 08:13:55;;;;;;;;;;;11.00;93.30;;;;;;5005070;28;19918;-60
2022/01/03 08:16:20;;;;;;;;;;;11.00;93.30;;;;;;5009617;28;19924;-60
2022/01/03 08:18:46;;;;;;;;;;;10.90;93.30;;;;;;5022573;28;19964;-60
2022/01/03 08:21:13;;;;;;;;;;;11.00;93.30;;;;;;5000529;28;19909;-60
2022/01/03 08:23:39;;;;;;;;;;;11.00;93.20;;;;;;5017316;28;20364;-60
2022/01/03 08:26:05;;;;;;;;;;;11.00;93.20;;;;;;4999601;28;19948;-60
2022/01/03 08:28:30;;;;;;;;;;;11.00;93.20;;;;;;5019533;28;20148;-60
2022/01/03 08:30:55;;;;;;;;;;;11.00;93.20;;;;;;5003142;28;20254;-60
2022/01/03 08:33:21;;;;;;;;;;;11.00;93.20;;;;;;5013096;28;19913;-60
2022/01/03 08:35:46;;;;;;;;;;;11.00;93.20;;;;;;5020514;28;20376;-60
2022/01/03 08:38:12;;;;;;;;;;;11.00;93.50;;;;;;5004365;28;19913;-60
2022/01/03 08:40:38;;;;;;;;;;;11.00;93.30;;;;;;5007162;28;19920;-60
2022/01/03 08:43:03;;;;;;;;;;;11.00;93.20;;;;;;5024011;28;19976;-60
2022/01/03 08:45:28;;;;;;;;;;;11.00;93.20;;;;;;5005244;28;19967;-60
2022/01/03 08:47:54;;;;;;;;;;;11.00;93.30;;;;;;4992046;28;19996;-60
2022/01/03 08:50:19;;;;;;;;;;;11.00;93.30;;;;;;4994599;28;19917;-60
2022/01/03 08:52:45;;;;;;;;;;;11.00;93.10;;;;;;5024133;28;19920;-61
2022/01/03 08:55:10;;;;;;;;;;;11.00;93.10;;;;;;5008855;28;19967;-60
2022/01/03 08:57:37;;;;;;;;;;;11.00;93.10;;;;;;5007087;28;20350;-60
2022/01/03 09:00:03;;;;;;;;;;;11.10;93.10;;;;;;5011341;28;20046;-60
2022/01/03 09:02:28;;;;;;;;;;;11.00;93.00;;;;;;5003478;28;20063;-60
2022/01/03 09:04:54;;;;;;;;;;;11.10;93.00;;;;;;5007393;28;19913;-60
2022/01/03 09:07:19;;;;;;;;;;;11.10;92.90;;;;;;5011695;28;20377;-61
2022/01/03 09:09:45;;;;;;;;;;;11.10;92.80;;;;;;5005687;28;19928;-60
2022/01/03 09:12:10;;;;;;;;;;;11.10;92.70;;;;;;4998403;28;19913;-60
2022/01/03 09:14:36;;;;;;;;;;;11.10;92.80;;;;;;5007825;28;19917;-60
2022/01/03 09:17:01;;;;;;;;;;;11.10;92.70;;;;;;4991731;28;19917;-60
2022/01/03 09:19:27;;;;;;;;;;;11.20;92.70;;;;;;5023034;28;19921;-60
2022/01/03 09:22:00;;;;;;;;;;;11.20;92.80;;;;;;5010105;28;19940;-60
2022/01/03 09:24:42;;;;;;;;;;;11.20;92.90;;;;;;5020702;28;19929;-61
2022/01/03 09:29:54;;;;;;;;;;;11.20;93.10;;;;;;5002076;28;19991;-60
2022/01/03 09:32:19;;;;;;;;;;;11.20;92.90;;;;;;5001924;28;19917;-60
2022/01/03 09:34:45;;;;;;;;;;;11.20;92.80;;;;;;4985976;28;19929;-60
2022/01/03 09:37:12;;;;;;;;;;;11.20;92.70;;;;;;5000440;28;19917;-60
2022/01/03 09:39:38;;;;;;;;;;;11.30;92.70;;;;;;4987756;28;19979;-60
2022/01/03 09:42:04;;;;;;;;;;;11.30;92.70;;;;;;5018563;28;20466;-61
2022/01/03 09:44:30;;;;;;;;;;;11.30;92.70;;;;;;4998454;28;19987;-60
2022/01/03 09:46:58;;;;;;;;;;;11.30;92.70;;;;;;5015131;28;19925;-60
2022/01/03 09:49:23;;;;;;;;;;;11.30;92.80;;;;;;5017195;28;19920;-61
2022/01/03 09:51:49;;;;;;;;;;;11.30;92.80;;;;;;4984870;28;19921;-60
2022/01/03 09:54:15;;;;;;;;;;;11.40;92.90;;;;;;4987878;28;19971;-61
2022/01/03 09:56:42;;;;;;;;;;;11.40;93.00;;;;;;5001034;28;20293;-61
2022/01/03 09:59:07;;;;;;;;;;;11.40;93.00;;;;;;4996589;28;21535;-60
2022/01/03 10:01:33;;;;;;;;;;;11.40;93.00;;;;;;5012557;28;19917;-60
2022/01/03 10:03:59;;;;;;;;;;;11.40;93.00;;;;;;5001303;28;20364;-60
2022/01/03 10:06:25;;;;;;;;;;;11.40;92.90;;;;;;4986864;28;19921;-60
2022/01/03 10:08:50;;;;;;;;;;;11.50;92.80;;;;;;5015138;28;19913;-61
2022/01/03 10:11:16;;;;;;;;;;;11.50;92.70;;;;;;5000100;28;19927;-61
2022/01/03 10:13:41;;;;;;;;;;;11.40;92.60;;;;;;5004060;28;19996;-61
2022/01/03 10:16:07;;;;;;;;;;;11.40;92.60;;;;;;5003987;28;19939;-61
2022/01/03 10:18:33;;;;;;;;;;;11.50;92.70;;;;;;5020233;28;19917;-60
2022/01/03 10:20:59;;;;;;;;;;;11.40;92.50;;;;;;5022121;28;19956;-60
2022/01/03 10:23:24;;;;;;;;;;;11.50;92.40;;;;;;5017717;28;19972;-60
2022/01/03 10:25:50;;;;;;;;;;;11.50;92.30;;;;;;5003743;28;19971;-60
2022/01/03 10:28:23;;;;;;;;;;;11.50;92.40;;;;;;5003101;28;19913;-61
2022/01/03 10:30:49;;;;;;;;;;;11.60;92.50;;;;;;5007389;28;19913;-61
2022/01/03 10:33:18;;;;;;;;;;;11.50;92.60;;;;;;5020595;28;20135;-61
2022/01/03 10:35:55;;;;;;;;;;;11.60;92.60;;;;;;4988990;28;19921;-60
2022/01/03 10:38:35;;;;;;;;;;;11.60;92.60;;;;;;5021614;28;19913;-61
2022/01/03 10:41:11;;;;;;;;;;;11.60;92.60;;;;;;5006169;28;20388;-60
2022/01/03 10:43:36;;;;;;;;;;;11.70;92.60;;;;;;5007286;28;19924;-61
2022/01/03 10:46:14;;;;;;;;;;;11.60;92.50;;;;;;5006238;28;19909;-60
2022/01/03 10:48:40;;;;;;;;;;;11.70;92.50;;;;;;4990954;28;19948;-61
2022/01/03 10:51:05;;;;;;;;;;;11.70;92.50;;;;;;5004856;28;19921;-61
2022/01/03 10:53:32;;;;;;;;;;;11.70;92.40;;;;;;5021339;28;19979;-60
2022/01/03 10:55:57;;;;;;;;;;;11.70;92.30;;;;;;5006465;28;20282;-61
2022/01/03 10:58:30;;;;;;;;;;;11.70;92.30;;;;;;5003976;28;19935;-60
2022/01/03 11:00:56;;;;;;;;;;;11.70;92.20;;;;;;5004981;28;19920;-60
2022/01/03 11:03:27;;;;;;;;;;;11.70;92.20;;;;;;5004428;28;20133;-60
2022/01/03 11:05:54;;;;;;;;;;;11.80;92.20;;;;;;5005369;28;19909;-60
2022/01/03 11:11:08;;;;;;;;;;;11.80;92.20;;;;;;5007399;28;20276;-60
2022/01/03 11:13:36;;;;;;;;;;;11.80;92.40;;;;;;5006569;28;19921;-60
2022/01/03 11:16:03;;;;;;;;;;;11.80;92.20;;;;;;4988086;28;20107;-61
2022/01/03 11:18:29;;;;;;;;;;;11.80;92.10;;;;;;5003326;28;19929;-62
2022/01/03 11:21:09;;;;;;;;;;;11.80;92.00;;;;;;5022583;28;19917;-60
2022/01/03 11:23:34;;;;;;;;;;;12.00;92.00;;;;;;5023862;28;20349;-60
2022/01/03 11:26:10;;;;;;;;;;;11.90;92.00;;;;;;5007171;28;19960;-61
2022/01/03 11:28:36;;;;;;;;;;;11.90;92.10;;;;;;4989924;28;19921;-60
2022/01/03 11:31:02;;;;;;;;;;;11.90;92.10;;;;;;5004028;28;19925;-60
2022/01/03 11:33:28;;;;;;;;;;;11.90;92.10;;;;;;5019545;28;19917;-60
2022/01/03 11:35:53;;;;;;;;;;;11.90;92.00;;;;;;5004642;28;19924;-60
2022/01/03 11:38:21;;;;;;;;;;;12.00;92.10;;;;;;5007685;28;19917;-61
2022/01/03 11:40:46;;;;;;;;;;;12.00;91.90;;;;;;5002241;28;19924;-60
2022/01/03 11:43:12;;;;;;;;;;;12.00;91.70;;;;;;5020876;28;19925;-61
2022/01/03 11:45:37;;;;;;;;;;;12.00;91.90;;;;;;4990359;28;20012;-61
2022/01/03 11:48:03;;;;;;;;;;;12.10;91.90;;;;;;5006507;28;19998;-61
2022/01/03 11:50:29;;;;;;;;;;;12.10;91.90;;;;;;5004532;28;19925;-61
2022/01/03 11:52:54;;;;;;;;;;;12.10;91.80;;;;;;5007270;28;19932;-60
2022/01/03 11:55:19;;;;;;;;;;;12.10;91.80;;;;;;5021891;28;19990;-61
2022/01/03 11:58:18;;;;;;;;;;;12.10;91.80;;;;;;4988940;28;20721;-60
2022/01/03 12:03:49;;;;;;;;;;;12.10;91.50;;;;;;5007413;28;19975;-61
2022/01/03 12:06:22;;;;;;;;;;;12.20;91.50;;;;;;5020736;28;19921;-60
2022/01/03 12:08:50;;;;;;;;;;;12.20;91.40;;;;;;5003009;28;19917;-60
2022/01/03 12:11:16;;;;;;;;;;;12.20;91.50;;;;;;5017939;28;20023;-60
2022/01/03 12:14:20;;;;;;;;;;;12.20;91.60;;;;;;5005289;28;19975;-61
2022/01/03 12:16:53;;;;;;;;;;;12.20;91.70;;;;;;4973479;28;19920;-61
2022/01/03 12:19:24;;;;;;;;;;;12.20;91.70;;;;;;4944302;28;19921;-61
2022/01/03 12:21:55;;;;;;;;;;;12.30;91.80;;;;;;4985695;28;20256;-60
2022/01/03 12:24:27;;;;;;;;;;;12.30;91.60;;;;;;5024135;28;19925;-60
2022/01/03 12:27:11;;;;;;;;;;;12.30;91.50;;;;;;5006311;28;20416;-60
2022/01/03 12:29:58;;;;;;;;;;;12.30;91.50;;;;;;5022890;28;19920;-60
2022/01/03 12:32:27;;;;;;;;;;;12.40;91.40;;;;;;5023643;28;19917;-60
2022/01/03 12:35:08;;;;;;;;;;;12.40;91.40;;;;;;5001369;28;19916;-60
2022/01/03 12:37:34;;;;;;;;;;;12.40;91.50;;;;;;5019548;28;20053;-61
2022/01/03 12:40:02;;;;;;;;;;;12.40;91.50;;;;;;5005759;28;20008;-60
2022/01/03 12:42:52;;;;;;;;;;;12.40;91.50;;;;;;5023865;28;19913;-60
2022/01/03 12:45:33;;;;;;;;;;;12.50;91.50;;;;;;5022274;28;19909;-61
2022/01/03 12:48:11;;;;;;;;;;;12.50;91.50;;;;;;5021314;28;19921;-60
2022/01/03 12:50:39;;;;;;;;;;;12.50;91.40;;;;;;5019072;28;19917;-61
2022/01/03 12:53:08;;;;;;;;;;;12.50;91.30;;;;;;5023895;28;19913;-61
2022/01/03 12:55:37;;;;;;;;;;;12.50;91.40;;;;;;5003692;28;19917;-61
2022/01/03 12:58:16;;;;;;;;;;;12.50;91.40;;;;;;5020172;28;19916;-60
2022/01/03 13:00:41;;;;;;;;;;;12.60;91.40;;;;;;5003298;28;20088;-61
2022/01/03 13:03:33;;;;;;;;;;;12.50;91.30;;;;;;4995442;28;19929;-61
2022/01/03 13:06:09;;;;;;;;;;;12.60;91.30;;;;;;4985004;28;19931;-60
2022/01/03 13:08:36;;;;;;;;;;;12.60;91.30;;;;;;4982548;28;20288;-60
2022/01/03 13:11:02;;;;;;;;;;;12.60;90.90;;;;;;5003254;28;20373;-60
2022/01/03 13:13:28;;;;;;;;;;;12.60;90.70;;;;;;5014627;28;19917;-61
2022/01/03 13:15:53;;;;;;;;;;;12.60;90.90;;;;;;4988284;28;19975;-60
2022/01/03 13:18:19;;;;;;;;;;;12.60;91.00;;;;;;4999776;28;20300;-61
2022/01/03 13:20:57;;;;;;;;;;;12.60;91.00;;;;;;4999808;28;20694;-60
2022/01/03 13:23:24;;;;;;;;;;;12.70;90.90;;;;;;5003744;28;19921;-61
2022/01/03 13:26:02;;;;;;;;;;;12.70;90.90;;;;;;4983860;28;20461;-60
2022/01/03 13:28:27;;;;;;;;;;;12.70;90.80;;;;;;4997863;28;20671;-60
2022/01/03 13:31:02;;;;;;;;;;;12.70;90.80;;;;;;4999604;28;19923;-60
2022/01/03 13:33:28;;;;;;;;;;;12.80;90.80;;;;;;4997088;28;19925;-60
2022/01/03 13:36:00;;;;;;;;;;;12.80;90.80;;;;;;5001260;28;19913;-61
2022/01/03 13:38:25;;;;;;;;;;;12.80;90.80;;;;;;4987593;28;19913;-59
2022/01/03 13:40:51;;;;;;;;;;;12.80;90.80;;;;;;4999176;28;19967;-62
2022/01/03 13:43:18;;;;;;;;;;;12.80;90.70;;;;;;4985191;28;20895;-62
2022/01/03 13:51:07;;;;;;;;;;;12.80;90.60;;;;;;5008881;28;19920;-62
2022/01/03 13:53:32;;;;;;;;;;;12.80;90.60;;;;;;5003403;28;19912;-62
2022/01/03 13:55:58;;;;;;;;;;;12.90;90.60;;;;;;4985793;28;20510;-60
2022/01/03 13:58:25;;;;;;;;;;;12.90;90.50;;;;;;4998398;28;19971;-59
2022/01/03 14:00:52;;;;;;;;;;;12.90;90.70;;;;;;4989174;28;19925;-60
2022/01/03 14:03:24;;;;;;;;;;;12.90;90.40;;;;;;4986279;28;19925;-59
2022/01/03 14:05:49;;;;;;;;;;;12.90;90.50;;;;;;5016010;28;20427;-59
2022/01/03 14:08:18;;;;;;;;;;;12.90;90.50;;;;;;5003552;28;19942;-59
2022/01/03 14:10:44;;;;;;;;;;;12.90;90.50;;;;;;5004169;28;20347;-59
2022/01/03 14:13:13;;;;;;;;;;;12.90;90.40;;;;;;5021829;28;19920;-59
2022/01/03 14:15:58;;;;;;;;;;;12.90;90.40;;;;;;5004085;28;20316;-59
2022/01/03 14:18:30;;;;;;;;;;;12.90;90.40;;;;;;5004771;28;19956;-60
2022/01/03 14:21:06;;;;;;;;;;;13.00;90.40;;;;;;5001075;28;19918;-60
2022/01/03 14:23:31;;;;;;;;;;;13.00;90.30;;;;;;5017989;28;20034;-60
2022/01/03 14:26:10;;;;;;;;;;;12.90;90.00;;;;;;5001710;28;20119;-60
2022/01/03 14:28:38;;;;;;;;;;;13.00;89.90;;;;;;5017202;28;19913;-60
2022/01/03 14:31:03;;;;;;;;;;;13.00;90.10;;;;;;5018554;28;19921;-60
2022/01/03 14:33:28;;;;;;;;;;;13.00;90.10;;;;;;5019417;28;19967;-60
2022/01/03 14:35:54;;;;;;;;;;;13.00;90.10;;;;;;5020980;28;19913;-60
2022/01/03 14:38:20;;;;;;;;;;;12.90;90.10;;;;;;5003721;28;20353;-60
2022/01/03 14:40:47;;;;;;;;;;;13.00;90.10;;;;;;5007778;28;19913;-60